Time;durP1;ratioP1;P1;durP2;ratioP2;P2;SDS_P1;SDS_P2;PMS_P1;PMS_P2;Temp;Humidity;BMP_temperature;BMP_pressure;BME280_temperature;BME280_humidity;BME280_pressure;Samples;Min_cycle;Max_cycle;Signal;HPM_P1;HPM_P2
2023/12/13 00:00:42;;;;;;;0.83;0.83;;;;;;;4.22;100.00;99313.50;5075768;28;20196;-66
2023/12/13 00:03:08;;;;;;;0.87;0.87;;;;;;;4.26;100.00;99303.34;5074265;28;20545;-66
2023/12/13 00:05:35;;;;;;;1.13;0.90;;;;;;;4.20;100.00;99307.59;5078250;28;20256;-66
2023/12/13 00:08:02;;;;;;;1.17;1.17;;;;;;;4.06;100.00;99281.47;5077216;28;20192;-66
2023/12/13 00:10:30;;;;;;;0.90;0.90;;;;;;;4.17;100.00;99302.53;5079370;28;20192;-66
2023/12/13 00:12:57;;;;;;;0.73;0.73;;;;;;;4.17;100.00;99300.00;5082371;28;20214;-66
2023/12/13 00:15:23;;;;;;;0.70;0.70;;;;;;;4.19;100.00;99308.47;5077141;28;20200;-66
2023/12/13 00:17:50;;;;;;;0.63;0.63;;;;;;;4.18;100.00;99314.38;5075138;28;20261;-66
2023/12/13 00:20:17;;;;;;;0.90;0.90;;;;;;;4.19;100.00;99303.38;5077284;28;20196;-66
2023/12/13 00:22:47;;;;;;;2.07;2.07;;;;;;;4.20;100.00;99294.91;5076719;28;20265;-65
2023/12/13 00:25:13;;;;;;;1.27;1.27;;;;;;;4.23;100.00;99306.75;5076968;28;20230;-65
2023/12/13 00:27:42;;;;;;;0.70;0.70;;;;;;;4.21;100.00;99311.81;5079212;28;20266;-66
2023/12/13 00:30:09;;;;;;;0.83;0.83;;;;;;;4.27;100.00;99315.16;5079387;28;20760;-66
2023/12/13 00:32:36;;;;;;;0.70;0.70;;;;;;;4.29;100.00;99318.56;5077765;28;20634;-65
2023/12/13 00:35:03;;;;;;;0.60;0.60;;;;;;;4.20;100.00;99307.59;5077458;28;20212;-66
2023/12/13 00:37:29;;;;;;;0.93;0.93;;;;;;;4.12;100.00;99296.66;5077063;28;20257;-66
2023/12/13 00:39:57;;;;;;;0.80;0.80;;;;;;;4.22;100.00;99316.06;5081428;28;20610;-66
2023/12/13 00:42:24;;;;;;;2.20;2.10;;;;;;;4.14;100.00;99314.41;5076755;28;20196;-65
2023/12/13 00:44:52;;;;;;;1.10;1.10;;;;;;;4.06;100.00;99314.47;5076421;28;20315;-66
2023/12/13 00:47:19;;;;;;;0.80;0.80;;;;;;;4.01;100.00;99330.53;5072879;28;20200;-65
2023/12/13 00:49:45;;;;;;;0.80;0.80;;;;;;;3.95;100.00;99349.16;5074061;28;20211;-65
2023/12/13 00:52:12;;;;;;;2.47;2.37;;;;;;;3.96;100.00;99332.25;5073378;28;20200;-66
2023/12/13 00:54:39;;;;;;;1.20;1.20;;;;;;;3.94;100.00;99296.75;5074935;28;20616;-65
2023/12/13 00:57:07;;;;;;;1.17;1.10;;;;;;;3.90;100.00;99292.56;5073924;28;20196;-66
2023/12/13 00:59:33;;;;;;;0.60;0.60;;;;;;;3.90;100.00;99292.56;5078839;28;20291;-65
2023/12/13 01:02:03;;;;;;;1.00;1.00;;;;;;;3.88;100.00;99295.97;5073348;28;20234;-66
2023/12/13 01:04:30;;;;;;;0.73;0.73;;;;;;;3.95;100.00;99312.81;5075717;28;20192;-65
2023/12/13 01:06:56;;;;;;;0.50;0.50;;;;;;;3.89;100.00;99313.69;5075276;28;20223;-66
2023/12/13 01:09:23;;;;;;;1.20;1.20;;;;;;;3.77;100.00;99312.91;5073062;28;20200;-65
2023/12/13 01:11:50;;;;;;;0.80;0.80;;;;;;;3.82;100.00;99322.16;5075227;28;20192;-66
2023/12/13 01:14:16;;;;;;;0.70;0.70;;;;;;;3.85;100.00;99336.53;5072853;28;20211;-65
2023/12/13 01:16:43;;;;;;;0.50;0.50;;;;;;;3.83;100.00;99331.47;5073172;28;20937;-66
2023/12/13 01:19:11;;;;;;;0.57;0.57;;;;;;;3.72;100.00;99323.06;5074381;28;20200;-66
2023/12/13 01:21:38;;;;;;;1.00;1.00;;;;;;;3.71;100.00;99323.94;5073047;28;20671;-66
2023/12/13 01:24:05;;;;;;;0.60;0.60;;;;;;;3.70;100.00;99312.09;5072602;28;20196;-66
2023/12/13 01:26:32;;;;;;;0.63;0.63;;;;;;;3.74;100.00;99316.31;5073972;28;20253;-66
2023/12/13 01:28:58;;;;;;;0.90;0.90;;;;;;;3.74;100.00;99308.69;5072902;28;20737;-65
2023/12/13 01:31:25;;;;;;;0.60;0.60;;;;;;;3.76;100.00;99301.91;5072583;28;20196;-66
2023/12/13 01:33:52;;;;;;;0.87;0.80;;;;;;;3.75;100.00;99297.69;5075056;28;20216;-65
2023/12/13 01:36:20;;;;;;;0.87;0.87;;;;;;;3.72;100.00;99307.84;5074808;28;20196;-66
2023/12/13 01:38:47;;;;;;;0.63;0.63;;;;;;;3.70;100.00;99309.56;5071087;28;20283;-65
2023/12/13 01:41:14;;;;;;;0.50;0.50;;;;;;;3.72;100.00;99307.03;5072323;28;20208;-66
2023/12/13 01:43:40;;;;;;;0.60;0.60;;;;;;;3.74;100.00;99308.69;5072377;28;20219;-66
2023/12/13 01:46:07;;;;;;;0.93;0.93;;;;;;;3.74;100.00;99293.50;5074495;28;20199;-65
2023/12/13 01:48:34;;;;;;;0.90;0.90;;;;;;;3.75;100.00;99300.22;5072227;28;20200;-65
2023/12/13 01:51:01;;;;;;;1.13;1.00;;;;;;;3.75;100.00;99285.00;5075144;28;20269;-65
2023/12/13 01:53:31;;;;;;;1.03;1.03;;;;;;;3.76;100.00;99276.56;5072149;28;20227;-66
2023/12/13 01:55:57;;;;;;;0.60;0.60;;;;;;;3.76;100.00;99271.50;5072901;28;20200;-66
2023/12/13 01:58:25;;;;;;;0.60;0.60;;;;;;;3.60;100.00;99244.53;5073273;28;20195;-65
2023/12/13 02:00:53;;;;;;;0.80;0.80;;;;;;;3.74;100.00;99260.53;5071917;28;20246;-65
2023/12/13 02:03:21;;;;;;;1.13;1.13;;;;;;;3.68;100.00;99263.91;5073996;28;20563;-65
2023/12/13 02:05:50;;;;;;;1.67;1.67;;;;;;;3.67;100.00;99256.34;5072036;28;20224;-65
2023/12/13 02:08:17;;;;;;;0.70;0.70;;;;;;;3.65;100.00;99258.06;5071638;28;20253;-66
2023/12/13 02:10:47;;;;;;;0.80;0.80;;;;;;;3.64;100.00;99256.34;5070592;28;20200;-65
2023/12/13 02:13:14;;;;;;;0.60;0.60;;;;;;;3.64;100.00;99251.28;5074228;28;20191;-65
2023/12/13 02:15:43;;;;;;;1.10;1.10;;;;;;;3.63;100.00;99236.91;5071665;28;20224;-65
2023/12/13 02:18:10;;;;;;;0.60;0.60;;;;;;;3.55;100.00;99220.94;5076428;28;20633;-70
2023/12/13 02:20:37;;;;;;;0.80;0.80;;;;;;;3.66;100.00;99249.56;5071652;28;20291;-70
2023/12/13 02:23:05;;;;;;;0.63;0.63;;;;;;;3.63;100.00;99255.50;5072074;28;20195;-70
2023/12/13 02:25:37;;;;;;;0.80;0.80;;;;;;;3.65;100.00;99258.06;5071633;28;20741;-70
2023/12/13 02:28:05;;;;;;;0.90;0.90;;;;;;;3.62;100.00;99263.09;5078987;28;20258;-71
2023/12/13 02:30:31;;;;;;;0.50;0.50;;;;;;;3.65;100.00;99278.31;5071630;28;20196;-71
2023/12/13 02:32:58;;;;;;;0.90;0.90;;;;;;;3.65;100.00;99283.41;5072817;28;20566;-71
2023/12/13 02:35:25;;;;;;;0.93;0.93;;;;;;;3.65;100.00;99294.34;5071591;28;20223;-71
2023/12/13 02:37:52;;;;;;;0.60;0.60;;;;;;;3.56;100.00;99283.41;5071360;28;20196;-71
2023/12/13 02:40:22;;;;;;;0.80;0.80;;;;;;;3.53;100.00;99270.75;5072987;28;20188;-71
2023/12/13 02:42:49;;;;;;;0.73;0.73;;;;;;;3.50;100.00;99251.34;5071536;28;20691;-69
2023/12/13 02:45:17;;;;;;;0.80;0.80;;;;;;;3.47;100.00;99247.97;5071510;28;20682;-71
2023/12/13 02:47:44;;;;;;;0.50;0.50;;;;;;;3.50;100.00;99247.97;5075701;28;20238;-70
2023/12/13 02:50:12;;;;;;;0.50;0.50;;;;;;;3.51;100.00;99268.25;5071570;28;20192;-70
2023/12/13 02:52:38;;;;;;;0.97;0.97;;;;;;;3.48;100.00;99291.06;5073566;28;20198;-70
2023/12/13 02:55:09;;;;;;;0.70;0.70;;;;;;;3.48;100.00;99290.22;5070780;28;20273;-71
2023/12/13 02:57:37;;;;;;;0.90;0.90;;;;;;;3.49;100.00;99282.59;5076470;28;20196;-71
2023/12/13 03:00:05;;;;;;;0.50;0.50;;;;;;;3.39;100.00;99264.91;5070896;28;20249;-70
2023/12/13 03:02:32;;;;;;;0.50;0.50;;;;;;;3.48;100.00;99290.22;5074325;28;20257;-70
2023/12/13 03:05:00;;;;;;;2.97;1.17;;;;;;;3.48;100.00;99269.94;5071010;28;20644;-70
2023/12/13 03:07:27;;;;;;;0.83;0.83;;;;;;;3.50;100.00;99255.56;5075228;28;20200;-70
2023/12/13 03:09:54;;;;;;;1.33;1.33;;;;;;;3.52;100.00;99246.28;5070626;28;20282;-69
2023/12/13 03:12:21;;;;;;;1.90;1.80;;;;;;;3.54;100.00;99240.34;5073404;28;20211;-70
2023/12/13 03:14:49;;;;;;;1.13;1.13;;;;;;;3.50;100.00;99227.69;5070665;28;20752;-69
2023/12/13 03:17:16;;;;;;;0.60;0.60;;;;;;;3.42;100.00;99199.03;5070926;28;20668;-70
2023/12/13 03:19:43;;;;;;;0.77;0.77;;;;;;;3.43;100.00;99216.75;5070927;28;20196;-70
2023/12/13 03:22:09;;;;;;;0.70;0.70;;;;;;;3.42;100.00;99216.75;5071032;28;20200;-70
2023/12/13 03:24:36;;;;;;;0.60;0.60;;;;;;;3.46;100.00;99221.78;5072747;28;20254;-70
2023/12/13 03:27:04;;;;;;;1.00;1.00;;;;;;;3.48;100.00;99229.41;5070513;28;20200;-69
2023/12/13 03:29:30;;;;;;;0.60;0.60;;;;;;;3.50;100.00;99238.66;5070459;28;20201;-70
2023/12/13 03:31:58;;;;;;;0.60;0.60;;;;;;;3.52;100.00;99236.16;5071080;28;20680;-69
2023/12/13 03:34:26;;;;;;;0.50;0.50;;;;;;;3.54;100.00;99214.16;5074628;28;20649;-70
2023/12/13 03:36:52;;;;;;;0.77;0.77;;;;;;;3.53;100.00;99209.94;5071026;28;20264;-70
2023/12/13 03:39:19;;;;;;;0.60;0.60;;;;;;;3.42;100.00;99210.00;5070630;28;20196;-69
2023/12/13 03:41:46;;;;;;;1.00;1.00;;;;;;;3.48;100.00;99235.31;5074308;28;20629;-70
2023/12/13 03:44:12;;;;;;;1.03;1.03;;;;;;;3.54;100.00;99225.16;5070206;28;20569;-70
2023/12/13 03:46:39;;;;;;;0.80;0.80;;;;;;;3.56;100.00;99215.00;5069981;28;20211;-69
2023/12/13 03:49:07;;;;;;;0.70;0.70;;;;;;;3.57;100.00;99219.22;5070412;28;20199;-67
2023/12/13 03:51:34;;;;;;;0.60;0.60;;;;;;;3.47;100.00;99230.25;5071279;28;20241;-69
2023/12/13 03:54:01;;;;;;;0.60;0.60;;;;;;;3.47;100.00;99253.03;5070785;28;20261;-69
2023/12/13 03:56:29;;;;;;;0.70;0.70;;;;;;;3.46;100.00;99251.34;5070888;28;20262;-69
2023/12/13 03:58:56;;;;;;;0.70;0.70;;;;;;;3.48;100.00;99252.22;5070731;28;20200;-69
2023/12/13 04:01:22;;;;;;;0.60;0.60;;;;;;;3.45;100.00;99245.47;5071870;28;20629;-70
2023/12/13 04:03:49;;;;;;;1.20;0.80;;;;;;;3.47;100.00;99242.91;5071195;28;20226;-70
2023/12/13 04:06:17;;;;;;;0.87;0.87;;;;;;;3.44;100.00;99255.59;5072186;28;20749;-69
2023/12/13 04:08:44;;;;;;;1.70;1.60;;;;;;;3.46;100.00;99261.47;5070516;28;20672;-69
2023/12/13 04:11:10;;;;;;;0.70;0.70;;;;;;;3.48;100.00;99239.53;5073104;28;20253;-68
2023/12/13 04:13:37;;;;;;;0.63;0.63;;;;;;;3.48;100.00;99234.47;5070300;28;20204;-70
2023/12/13 04:16:04;;;;;;;0.60;0.60;;;;;;;3.48;100.00;99249.66;5066629;28;20219;-70
2023/12/13 04:18:31;;;;;;;1.10;1.10;;;;;;;3.48;100.00;99258.13;5069691;28;20200;-70
2023/12/13 04:20:58;;;;;;;0.70;0.70;;;;;;;3.45;100.00;99262.34;5077189;28;20664;-65
2023/12/13 04:23:26;;;;;;;0.93;0.93;;;;;;;3.46;100.00;99261.47;5076155;28;20200;-65
2023/12/13 04:25:52;;;;;;;0.60;0.60;;;;;;;3.38;100.00;99264.06;5074284;28;20192;-65
2023/12/13 04:28:19;;;;;;;1.03;1.03;;;;;;;3.40;100.00;99246.31;5074201;28;20215;-65
2023/12/13 04:30:46;;;;;;;0.70;0.70;;;;;;;3.48;100.00;99259.81;5074427;28;20257;-65
2023/12/13 04:33:12;;;;;;;0.60;0.60;;;;;;;3.49;100.00;99251.38;5071676;28;20261;-65
2023/12/13 04:35:39;;;;;;;1.33;1.23;;;;;;;3.48;100.00;99258.13;5073797;28;20216;-65
2023/12/13 04:38:06;;;;;;;0.80;0.80;;;;;;;3.49;100.00;99276.72;5073775;28;20211;-65
2023/12/13 04:40:34;;;;;;;0.60;0.60;;;;;;;3.46;100.00;99282.59;5079515;28;20192;-65
2023/12/13 04:43:02;;;;;;;0.60;0.60;;;;;;;3.47;100.00;99291.91;5077968;28;20200;-65
2023/12/13 04:45:28;;;;;;;0.50;0.50;;;;;;;3.38;100.00;99284.34;5073771;28;20188;-65
2023/12/13 04:47:55;;;;;;;0.87;0.87;;;;;;;3.44;100.00;99288.53;5073327;28;20200;-65
2023/12/13 04:50:23;;;;;;;0.60;0.60;;;;;;;3.46;100.00;99284.28;5074992;28;20278;-65
2023/12/13 04:52:49;;;;;;;0.90;0.90;;;;;;;3.45;100.00;99275.03;5076510;28;20584;-65
2023/12/13 04:55:16;;;;;;;0.60;0.60;;;;;;;3.44;100.00;99283.47;5069668;28;20299;-66
2023/12/13 04:57:44;;;;;;;0.70;0.70;;;;;;;3.44;100.00;99278.41;5073376;28;20192;-65
2023/12/13 05:00:12;;;;;;;0.70;0.70;;;;;;;3.43;100.00;99286.84;5077158;28;20924;-65
2023/12/13 05:02:40;;;;;;;2.07;0.90;;;;;;;3.47;100.00;99288.53;5080649;28;20707;-66
2023/12/13 05:05:08;;;;;;;0.50;0.50;;;;;;;3.48;100.00;99275.00;5073239;28;20242;-65
2023/12/13 05:07:34;;;;;;;0.60;0.60;;;;;;;3.50;100.00;99273.31;5073451;28;20211;-65
2023/12/13 05:10:01;;;;;;;0.87;0.87;;;;;;;3.51;100.00;99259.78;5073591;28;20208;-65
2023/12/13 05:12:28;;;;;;;0.83;0.83;;;;;;;3.54;100.00;99262.31;5078319;28;20192;-65
2023/12/13 05:14:56;;;;;;;0.50;0.50;;;;;;;3.54;100.00;99247.09;5073378;28;20224;-65
2023/12/13 05:17:23;;;;;;;2.53;1.23;;;;;;;3.43;100.00;99229.41;5073186;28;20671;-65
2023/12/13 05:19:50;;;;;;;0.60;0.60;;;;;;;3.52;100.00;99236.16;5078044;28;20204;-65
2023/12/13 05:22:16;;;;;;;0.80;0.80;;;;;;;3.53;100.00;99227.66;5087271;28;20241;-65
2023/12/13 05:24:43;;;;;;;0.80;0.80;;;;;;;3.45;100.00;99224.34;5083412;28;20237;-65
2023/12/13 05:27:10;;;;;;;0.60;0.60;;;;;;;3.38;100.00;99235.34;5071696;28;20629;-65
2023/12/13 05:29:36;;;;;;;1.67;1.60;;;;;;;3.40;100.00;99236.19;5074952;28;20257;-64
2023/12/13 05:32:05;;;;;;;0.60;0.60;;;;;;;3.43;100.00;99233.63;5074944;28;20689;-65
2023/12/13 05:34:31;;;;;;;0.70;0.70;;;;;;;3.39;100.00;99229.44;5073525;28;20204;-65
2023/12/13 05:36:59;;;;;;;1.00;1.00;;;;;;;3.41;100.00;99230.28;5072707;28;20757;-65
2023/12/13 05:39:26;;;;;;;1.57;1.57;;;;;;;3.35;100.00;99212.56;5071628;28;20193;-65
2023/12/13 05:41:52;;;;;;;0.73;0.73;;;;;;;3.38;100.00;99226.06;5077187;28;20196;-65
2023/12/13 05:44:19;;;;;;;0.50;0.50;;;;;;;3.40;100.00;99221.81;5074808;28;20219;-66
2023/12/13 05:46:46;;;;;;;1.03;1.03;;;;;;;3.42;100.00;99229.44;5072775;28;20642;-66
2023/12/13 05:49:15;;;;;;;1.70;1.70;;;;;;;3.45;100.00;99249.69;5071923;28;20200;-66
2023/12/13 05:51:42;;;;;;;0.77;0.77;;;;;;;3.50;100.00;99246.28;5073111;28;20196;-66
2023/12/13 05:54:08;;;;;;;1.37;1.37;;;;;;;3.39;100.00;99226.91;5073441;28;20204;-66
2023/12/13 05:56:35;;;;;;;1.20;1.20;;;;;;;3.31;100.00;99248.88;5072367;28;20285;-66
2023/12/13 05:59:02;;;;;;;1.70;1.60;;;;;;;3.30;100.00;99268.31;5072045;28;20196;-66
2023/12/13 06:01:28;;;;;;;1.00;1.00;;;;;;;3.35;100.00;99265.75;5073123;28;20584;-66
2023/12/13 06:03:55;;;;;;;0.60;0.60;;;;;;;3.38;100.00;99248.03;5074610;28;20253;-66
2023/12/13 06:06:23;;;;;;;0.77;0.77;;;;;;;3.26;100.00;99232.88;5077139;28;20196;-66
2023/12/13 06:08:50;;;;;;;0.60;0.60;;;;;;;3.08;100.00;99219.41;5071070;28;20203;-66
2023/12/13 06:11:17;;;;;;;1.97;1.97;;;;;;;2.84;100.00;99204.31;5073502;28;20568;-66
2023/12/13 06:13:43;;;;;;;0.70;0.70;;;;;;;2.80;100.00;99197.56;5071794;28;20258;-66
2023/12/13 06:16:12;;;;;;;0.80;0.80;;;;;;;2.75;100.00;99183.25;5073496;28;20664;-66
2023/12/13 06:18:39;;;;;;;0.63;0.63;;;;;;;2.88;100.00;99203.44;5071651;28;20192;-66
2023/12/13 06:21:07;;;;;;;1.07;1.07;;;;;;;2.95;100.00;99232.94;5073279;28;20206;-70
2023/12/13 06:23:35;;;;;;;1.00;1.00;;;;;;;2.89;100.00;99222.84;5071542;28;20254;-71
2023/12/13 06:26:03;;;;;;;0.70;0.70;;;;;;;3.15;100.00;99250.63;5075797;28;20571;-71
2023/12/13 06:28:29;;;;;;;0.67;0.67;;;;;;;3.28;100.00;99252.28;5074354;28;20198;-71
2023/12/13 06:30:56;;;;;;;1.60;1.27;;;;;;;3.33;100.00;99242.97;5073329;28;20203;-71
2023/12/13 06:33:23;;;;;;;1.03;1.03;;;;;;;3.49;100.00;99251.38;5074706;28;20247;-71
2023/12/13 06:35:50;;;;;;;1.07;1.07;;;;;;;3.54;100.00;99247.97;5072739;28;20691;-71
2023/12/13 06:38:16;;;;;;;0.80;0.80;;;;;;;3.63;100.00;99247.06;5071770;28;20664;-71
2023/12/13 06:40:44;;;;;;;1.53;1.53;;;;;;;3.70;100.00;99241.13;5071555;28;20232;-69
2023/12/13 06:43:11;;;;;;;0.80;0.80;;;;;;;3.74;100.00;99247.84;5073011;28;20224;-70
2023/12/13 06:45:38;;;;;;;0.87;0.87;;;;;;;3.76;100.00;99253.75;5069998;28;20274;-70
2023/12/13 06:48:06;;;;;;;1.00;1.00;;;;;;;3.76;100.00;99247.84;5071091;28;20668;-70
2023/12/13 06:50:33;;;;;;;0.70;0.70;;;;;;;3.78;100.00;99244.44;5070483;28;20200;-70
2023/12/13 06:53:00;;;;;;;1.20;1.20;;;;;;;3.70;100.00;99258.84;5072135;28;20208;-70
2023/12/13 06:55:27;;;;;;;1.70;1.33;;;;;;;3.74;100.00;99252.94;5077540;28;20722;-70
2023/12/13 06:57:55;;;;;;;1.63;1.63;;;;;;;3.66;100.00;99249.56;5069448;28;20203;-69
2023/12/13 07:00:26;;;;;;;1.03;1.03;;;;;;;3.65;100.00;99261.41;5067434;28;20200;-69
2023/12/13 07:02:53;;;;;;;2.20;2.10;;;;;;;3.68;100.00;99263.09;5069789;28;20709;-69
2023/12/13 07:05:20;;;;;;;2.07;2.07;;;;;;;3.70;100.00;99251.25;5069120;28;20196;-69
2023/12/13 07:07:48;;;;;;;1.90;1.90;;;;;;;3.64;100.00;99238.63;5069301;28;20208;-69
2023/12/13 07:10:14;;;;;;;3.20;2.97;;;;;;;3.66;100.00;99224.22;5068853;28;20196;-69
2023/12/13 07:12:41;;;;;;;1.03;1.03;;;;;;;3.68;100.00;99240.28;5069097;28;20261;-69
2023/12/13 07:15:12;;;;;;;2.17;2.17;;;;;;;3.67;100.00;99231.00;5069249;28;20227;-69
2023/12/13 07:17:38;;;;;;;3.10;2.80;;;;;;;3.51;100.00;99235.31;5066436;28;20210;-69
2023/12/13 07:20:07;;;;;;;1.00;1.00;;;;;;;3.41;100.00;99237.88;5065762;28;20216;-69
2023/12/13 07:22:34;;;;;;;1.70;1.70;;;;;;;3.34;100.00;99206.66;5065357;28;20235;-69
2023/12/13 07:25:00;;;;;;;1.03;1.03;;;;;;;3.51;100.00;99234.44;5068525;28;20614;-69
2023/12/13 07:27:27;;;;;;;1.23;1.23;;;;;;;3.57;100.00;99229.34;5059770;28;20212;-68
2023/12/13 07:29:54;;;;;;;0.90;0.90;;;;;;;3.52;100.00;99215.88;5065614;28;20703;-69
2023/12/13 07:32:22;;;;;;;1.17;1.17;;;;;;;3.62;100.00;99212.41;5064787;28;20200;-69
2023/12/13 07:34:48;;;;;;;5.70;1.10;;;;;;;3.47;100.00;99207.44;5064867;28;20276;-69
2023/12/13 07:37:15;;;;;;;1.23;1.23;;;;;;;3.57;100.00;99204.84;5063632;28;20269;-69
2023/12/13 07:39:42;;;;;;;1.03;1.03;;;;;;;3.60;100.00;99209.91;5068703;28;20208;-69
2023/12/13 07:42:09;;;;;;;1.53;1.53;;;;;;;3.69;100.00;99209.00;5065725;28;20203;-69
2023/12/13 07:44:36;;;;;;;1.57;1.57;;;;;;;3.68;100.00;99213.22;5064546;28;20228;-69
2023/12/13 07:47:03;;;;;;;0.97;0.97;;;;;;;3.78;100.00;99197.97;5065726;28;20192;-69
2023/12/13 07:49:31;;;;;;;1.67;1.67;;;;;;;3.90;100.00;99198.75;5066972;28;20283;-69
2023/12/13 07:51:58;;;;;;;1.30;1.30;;;;;;;3.84;100.00;99178.50;5064944;28;20273;-69
2023/12/13 07:54:24;;;;;;;0.90;0.90;;;;;;;4.09;100.00;99197.75;5062000;28;20196;-69
2023/12/13 07:56:53;;;;;;;0.90;0.90;;;;;;;4.21;100.00;99200.19;5070512;28;20227;-69
2023/12/13 07:59:20;;;;;;;0.80;0.80;;;;;;;4.20;100.00;99180.75;5064904;28;20614;-71
2023/12/13 08:01:47;;;;;;;1.10;1.10;;;;;;;4.44;100.00;99196.63;5072907;28;20243;-71
2023/12/13 08:04:14;;;;;;;3.90;1.97;;;;;;;4.55;100.00;99192.31;5065619;28;20196;-70
2023/12/13 08:06:42;;;;;;;0.60;0.60;;;;;;;4.64;100.00;99177.81;5071694;28;20633;-70
2023/12/13 08:09:10;;;;;;;1.00;1.00;;;;;;;4.62;100.00;99160.94;5066611;28;20270;-71
2023/12/13 08:11:37;;;;;;;1.03;1.03;;;;;;;4.76;100.00;99169.22;5073362;28;20227;-71
2023/12/13 08:14:04;;;;;;;0.90;0.90;;;;;;;4.80;100.00;99181.03;5070386;28;20261;-70
2023/12/13 08:16:31;;;;;;;1.03;1.03;;;;;;;4.90;100.00;99176.69;5071370;28;20220;-70
2023/12/13 08:18:57;;;;;;;1.27;1.27;;;;;;;4.96;100.00;99169.00;5074403;28;20253;-70
2023/12/13 08:21:24;;;;;;;1.40;1.40;;;;;;;4.99;100.00;99154.56;5072128;28;20195;-71
2023/12/13 08:23:53;;;;;;;0.63;0.63;;;;;;;5.12;100.00;99178.97;5071103;28;20209;-70
2023/12/13 08:26:20;;;;;;;1.00;1.00;;;;;;;5.20;100.00;99167.00;5072942;28;20250;-69
2023/12/13 08:28:47;;;;;;;1.77;1.37;;;;;;;5.21;100.00;99168.69;5071606;28;20765;-70
2023/12/13 08:31:13;;;;;;;1.57;1.53;;;;;;;5.28;100.00;99180.47;5072149;28;20638;-70
2023/12/13 08:33:41;;;;;;;2.03;1.97;;;;;;;5.33;100.00;99177.03;5073385;28;20258;-70
2023/12/13 08:36:10;;;;;;;6.47;5.90;;;;;;;5.39;100.00;99171.88;5069598;28;20216;-71
2023/12/13 08:38:37;;;;;;;2.53;2.50;;;;;;;5.44;100.00;99162.47;5073794;28;20214;-70
2023/12/13 08:41:07;;;;;;;1.67;1.67;;;;;;;5.55;100.00;99173.34;5069314;28;20200;-71
2023/12/13 08:43:34;;;;;;;2.57;2.47;;;;;;;5.61;100.00;99168.19;5069927;28;20320;-70
2023/12/13 08:46:01;;;;;;;2.23;2.13;;;;;;;5.71;100.00;99165.50;5072201;28;20683;-70
2023/12/13 08:48:28;;;;;;;2.23;2.13;;;;;;;5.80;100.00;99169.59;5070917;28;20680;-70
2023/12/13 08:50:55;;;;;;;0.90;0.90;;;;;;;5.84;100.00;99155.97;5071798;28;20204;-71
2023/12/13 08:53:22;;;;;;;1.73;1.63;;;;;;;5.79;100.00;99139.94;5073373;28;20741;-71
2023/12/13 08:55:49;;;;;;;3.90;2.53;;;;;;;5.84;100.00;99150.88;5073437;28;20606;-70
2023/12/13 08:58:17;;;;;;;2.50;1.70;;;;;;;5.96;100.00;99166.00;5074107;28;20288;-71
2023/12/13 09:00:44;;;;;;;3.57;1.90;;;;;;;6.03;100.00;99161.66;5073835;28;20695;-70
2023/12/13 09:03:11;;;;;;;4.30;1.50;;;;;;;6.02;100.00;99154.88;5074290;28;20223;-70
2023/12/13 09:05:38;;;;;;;2.23;2.13;;;;;;;5.99;100.00;99153.22;5074165;28;20204;-71
2023/12/13 09:08:05;;;;;;;1.33;1.33;;;;;;;6.11;100.00;99145.38;5073155;28;20230;-70
2023/12/13 09:10:34;;;;;;;1.53;1.43;;;;;;;6.19;100.00;99128.28;5072889;28;20200;-69
2023/12/13 09:13:03;;;;;;;1.97;1.43;;;;;;;6.17;100.00;99114.72;5074251;28;20200;-69
2023/12/13 09:15:35;;;;;;;1.37;1.33;;;;;;;6.19;100.00;99097.75;5074318;28;20671;-70
2023/12/13 09:18:02;;;;;;;5.97;1.90;;;;;;;6.18;100.00;99103.69;5074276;28;20198;-69
2023/12/13 09:20:29;;;;;;;5.00;4.80;;;;;;;6.24;100.00;99126.50;5073144;28;20580;-69
2023/12/13 09:22:56;;;;;;;2.20;1.97;;;;;;;6.30;100.00;99126.38;5073758;28;20207;-69
2023/12/13 09:25:23;;;;;;;1.97;1.93;;;;;;;6.35;100.00;99126.31;5074079;28;20591;-68
2023/12/13 09:27:50;;;;;;;6.57;3.23;;;;;;;6.46;100.00;99126.13;5073655;28;20200;-69
2023/12/13 09:30:17;;;;;;;1.67;1.57;;;;;;;6.46;100.00;99115.97;5073462;28;20231;-68
2023/12/13 09:32:45;;;;;;;15.43;3.17;;;;;;;6.49;100.00;99104.00;5071186;28;20717;-69
2023/12/13 09:35:12;;;;;;;2.00;2.00;;;;;;;6.58;100.00;99113.19;5073853;28;20248;-69
2023/12/13 09:37:40;;;;;;;8.13;3.10;;;;;;;6.67;100.00;99107.91;5073845;28;20212;-68
2023/12/13 09:40:14;;;;;;;5.03;2.93;;;;;;;6.60;100.00;99114.81;5073559;28;20749;-68
2023/12/13 09:42:46;;;;;;;3.17;2.27;;;;;;;6.71;100.00;99117.16;5058994;28;20564;-68
2023/12/13 09:45:18;;;;;;;11.30;3.63;;;;;;;6.80;100.00;99120.38;5073342;28;20247;-68
2023/12/13 09:47:47;;;;;;;2.60;2.10;;;;;;;6.71;100.00;99112.06;5073382;28;20275;-68
2023/12/13 09:50:14;;;;;;;2.73;2.63;;;;;;;6.77;100.00;99114.50;5073628;28;20204;-69
2023/12/13 09:52:43;;;;;;;2.67;2.47;;;;;;;6.81;100.00;99103.38;5073230;28;20290;-69
2023/12/13 09:55:11;;;;;;;2.27;2.17;;;;;;;6.78;100.00;99090.72;5073599;28;20285;-68
2023/12/13 09:57:39;;;;;;;2.10;2.10;;;;;;;6.95;100.00;99098.84;5073482;28;20655;-70
2023/12/13 10:00:07;;;;;;;2.90;2.60;;;;;;;6.97;100.00;99089.47;5073329;28;20572;-69
2023/12/13 10:02:34;;;;;;;4.77;3.83;;;;;;;7.05;100.00;99087.59;5072908;28;20199;-69
2023/12/13 10:05:05;;;;;;;3.80;2.60;;;;;;;7.05;100.00;99082.50;5073529;28;20200;-69
2023/12/13 10:07:32;;;;;;;4.53;2.27;;;;;;;7.15;100.00;99058.50;5073152;28;20204;-69
2023/12/13 10:09:59;;;;;;;2.63;2.27;;;;;;;7.14;100.00;99067.00;5073319;28;20203;-68
2023/12/13 10:12:28;;;;;;;2.43;2.23;;;;;;;7.15;100.00;99071.22;5072772;28;20196;-68
2023/12/13 10:14:55;;;;;;;4.50;2.87;;;;;;;7.15;100.00;99078.88;5072694;28;20208;-68
2023/12/13 10:17:22;;;;;;;4.63;2.60;;;;;;;7.20;100.00;99071.16;5072536;28;20270;-68
2023/12/13 10:19:49;;;;;;;7.27;4.07;;;;;;;7.21;100.00;99080.44;5071515;28;20725;-68
2023/12/13 10:22:18;;;;;;;9.73;3.33;;;;;;;7.27;100.00;99088.81;5072508;28;20668;-68
2023/12/13 10:24:46;;;;;;;4.57;4.17;;;;;;;7.26;100.00;99092.25;5072464;28;20630;-69
2023/12/13 10:27:13;;;;;;;2.97;2.77;;;;;;;7.33;100.00;99088.66;5071923;28;20192;-69
2023/12/13 10:29:40;;;;;;;4.37;3.67;;;;;;;7.38;100.00;99089.41;5072145;28;20204;-68
2023/12/13 10:32:07;;;;;;;3.70;3.13;;;;;;;7.43;100.00;99079.13;5066306;28;20291;-67
2023/12/13 10:34:33;;;;;;;3.20;3.00;;;;;;;7.40;100.00;99059.59;5065737;28;20257;-67
2023/12/13 10:37:01;;;;;;;7.03;2.63;;;;;;;7.60;100.00;99071.91;5065443;28;20289;-67
2023/12/13 10:39:30;;;;;;;3.70;3.43;;;;;;;7.66;100.00;99058.16;5065224;28;20200;-68
2023/12/13 10:41:57;;;;;;;2.67;1.83;;;;;;;7.71;100.00;99058.91;5060526;28;20207;-67
2023/12/13 10:44:24;;;;;;;2.93;2.60;;;;;;;7.78;100.00;99060.44;5067145;28;20228;-67
2023/12/13 10:46:57;;;;;;;3.37;3.10;;;;;;;7.82;100.00;99062.00;5065328;28;20289;-67
2023/12/13 10:49:24;;;;;;;4.70;2.20;;;;;;;7.86;100.00;99050.88;5060216;28;20291;-67
2023/12/13 10:51:52;;;;;;;9.77;3.30;;;;;;;7.90;100.00;99070.34;5064647;28;20290;-67
2023/12/13 10:54:19;;;;;;;3.37;3.07;;;;;;;7.84;100.00;99056.03;5067799;28;20200;-67
2023/12/13 10:56:47;;;;;;;3.70;2.77;;;;;;;7.93;100.00;99060.06;5064227;28;20277;-68
2023/12/13 10:59:16;;;;;;;5.40;4.03;;;;;;;7.89;100.00;99038.03;5071927;28;20249;-68
2023/12/13 11:01:45;;;;;;;2.83;2.73;;;;;;;7.97;100.00;99033.59;5071661;28;20249;-69
2023/12/13 11:04:13;;;;;;;4.30;3.53;;;;;;;8.00;100.00;99028.41;5071822;28;20207;-69
2023/12/13 11:06:45;;;;;;;3.53;3.00;;;;;;;8.06;100.00;99020.56;5066535;28;20278;-68
2023/12/13 11:09:13;;;;;;;3.03;2.87;;;;;;;8.00;100.00;99020.75;5071470;28;20200;-68
2023/12/13 11:11:41;;;;;;;4.20;2.37;;;;;;;8.13;100.00;99036.56;5074463;28;20196;-69
2023/12/13 11:14:10;;;;;;;4.30;3.20;;;;;;;8.09;100.00;99028.16;5071787;28;20659;-68
2023/12/13 11:16:40;;;;;;;2.70;2.50;;;;;;;8.16;100.00;99011.81;5072262;28;20303;-69
2023/12/13 11:19:11;;;;;;;4.20;3.80;;;;;;;8.18;100.00;99010.03;5071351;28;20200;-68
2023/12/13 11:21:40;;;;;;;4.20;2.77;;;;;;;8.26;100.00;99026.00;5065004;28;20245;-70
2023/12/13 11:24:12;;;;;;;3.37;3.07;;;;;;;8.24;100.00;99012.41;5071427;28;20200;-68
2023/12/13 11:26:42;;;;;;;7.33;2.80;;;;;;;8.18;100.00;99004.09;5069264;28;20196;-69
2023/12/13 11:29:17;;;;;;;5.77;3.00;;;;;;;8.17;100.00;98993.06;5067782;28;20199;-70
2023/12/13 11:31:51;;;;;;;5.27;3.70;;;;;;;8.10;100.00;98991.53;5061543;28;20265;-71
2023/12/13 11:34:18;;;;;;;3.60;2.97;;;;;;;8.05;100.00;98988.25;5064094;28;20200;-69